Time;durP1;ratioP1;P1;durP2;ratioP2;P2;SDS_P1;SDS_P2;PMS_P1;PMS_P2;Temp;Humidity;BMP_temperature;BMP_pressure;BME280_temperature;BME280_humidity;BME280_pressure;Samples;Min_cycle;Max_cycle;Signal;HPM_P1;HPM_P2
2023/08/18 00:00:21;;;;;;;;;;;;;;;24.67;67.18;101350.22;3968474;29;20411;-70
2023/08/18 00:02:24;;;;;;;;;;;;;;;24.65;67.06;101346.88;3969135;29;19990;-69
2023/08/18 00:04:26;;;;;;;;;;;;;;;24.64;67.08;101345.22;3968739;29;20041;-69
2023/08/18 00:06:28;;;;;;;;;;;;;;;24.62;67.32;101352.91;3969161;29;20034;-69
2023/08/18 00:08:30;;;;;;;;;;;;;;;24.60;67.57;101339.34;3969119;29;20019;-69
2023/08/18 00:10:32;;;;;;;;;;;;;;;24.60;67.29;101344.06;3968982;29;19929;-69
2023/08/18 00:12:34;;;;;;;;;;;;;;;24.60;67.51;101347.63;3969002;29;20441;-69
2023/08/18 00:14:36;;;;;;;;;;;;;;;24.59;67.69;101337.72;3968555;29;20032;-68
2023/08/18 00:16:39;;;;;;;;;;;;;;;24.59;67.65;101346.00;3969500;29;20322;-69
2023/08/18 00:18:42;;;;;;;;;;;;;;;24.59;67.78;101342.38;3967843;29;20016;-69
2023/08/18 00:20:44;;;;;;;;;;;;;;;24.59;67.53;101336.84;3967998;29;20681;-69
2023/08/18 00:22:46;;;;;;;;;;;;;;;24.58;67.57;101335.19;3966293;29;19933;-69
2023/08/18 00:24:48;;;;;;;;;;;;;;;24.56;67.95;101329.91;3968676;29;20122;-69
2023/08/18 00:26:50;;;;;;;;;;;;;;;24.57;67.66;101331.59;3968611;29;20080;-69
2023/08/18 00:28:52;;;;;;;;;;;;;;;24.57;67.94;101325.25;3968561;29;20024;-69
2023/08/18 00:30:54;;;;;;;;;;;;;;;24.56;67.66;101318.84;3968319;29;20024;-69
2023/08/18 00:32:56;;;;;;;;;;;;;;;24.56;67.82;101326.28;3958467;29;20016;-70
2023/08/18 00:34:59;;;;;;;;;;;;;;;24.56;68.16;101324.38;3968126;29;20034;-69
2023/08/18 00:37:02;;;;;;;;;;;;;;;24.54;68.17;101312.72;3968841;29;20028;-69
2023/08/18 00:39:04;;;;;;;;;;;;;;;24.53;67.88;101313.84;3973371;29;20129;-70
2023/08/18 00:41:06;;;;;;;;;;;;;;;24.53;67.92;101311.09;3968200;29;20021;-69
2023/08/18 00:43:09;;;;;;;;;;;;;;;24.53;67.97;101311.09;3973752;29;19929;-70
2023/08/18 00:45:11;;;;;;;;;;;;;;;24.52;68.29;101303.88;3968430;29;20023;-70
2023/08/18 00:47:14;;;;;;;;;;;;;;;24.53;68.11;101313.00;3968029;29;20016;-70
2023/08/18 00:49:15;;;;;;;;;;;;;;;24.53;68.09;101307.47;3965315;29;19929;-70
2023/08/18 00:51:19;;;;;;;;;;;;;;;24.52;68.36;101298.38;3966559;29;20379;-70
2023/08/18 00:53:20;;;;;;;;;;;;;;;24.52;68.49;101301.13;3968138;29;20016;-70
2023/08/18 00:55:22;;;;;;;;;;;;;;;24.52;68.54;101300.28;3968778;29;20024;-70
2023/08/18 00:57:24;;;;;;;;;;;;;;;24.52;68.46;101300.28;3968257;29;20032;-69
2023/08/18 00:59:26;;;;;;;;;;;;;;;24.52;68.54;101301.13;3968288;29;20036;-71
2023/08/18 01:01:27;;;;;;;;;;;;;;;24.51;68.49;101295.84;3968803;29;20472;-69
2023/08/18 01:03:30;;;;;;;;;;;;;;;24.49;68.41;101295.28;3968562;29;20028;-70
2023/08/18 01:05:32;;;;;;;;;;;;;;;24.49;68.65;101287.00;3969055;29;20032;-69
2023/08/18 01:07:37;;;;;;;;;;;;;;;24.47;68.51;101292.78;3969607;29;20036;-70
2023/08/18 01:09:39;;;;;;;;;;;;;;;24.45;68.97;101287.53;3988115;29;20016;-70
2023/08/18 01:11:45;;;;;;;;;;;;;;;24.45;68.63;101295.81;3983213;29;20041;-70
2023/08/18 01:13:48;;;;;;;;;;;;;;;24.45;68.56;101293.03;3973517;29;20365;-70
2023/08/18 01:15:48;;;;;;;;;;;;;;;24.45;69.13;101295.81;3968421;29;20029;-71
2023/08/18 01:17:51;;;;;;;;;;;;;;;24.45;68.62;101303.22;3968404;29;19929;-70
2023/08/18 01:19:52;;;;;;;;;;;;;;;24.45;68.62;101300.47;3968710;29;19960;-70
2023/08/18 01:21:54;;;;;;;;;;;;;;;24.43;69.03;101297.97;3958887;29;20405;-70
2023/08/18 01:24:00;;;;;;;;;;;;;;;24.43;68.81;101300.72;3959036;29;20376;-70
2023/08/18 01:26:03;;;;;;;;;;;;;;;24.44;68.98;101296.06;3951602;29;20024;-69
2023/08/18 01:28:08;;;;;;;;;;;;;;;24.42;69.28;101298.22;3968481;29;20032;-69
2023/08/18 01:30:10;;;;;;;;;;;;;;;24.42;69.21;101292.69;3969384;29;20019;-69
2023/08/18 01:32:12;;;;;;;;;;;;;;;24.41;69.27;101297.41;3969866;29;20013;-69
2023/08/18 01:34:15;;;;;;;;;;;;;;;24.41;69.35;101300.16;3967797;29;19933;-69
2023/08/18 01:36:18;;;;;;;;;;;;;;;24.40;69.16;101294.88;3970555;29;20064;-69
2023/08/18 01:38:21;;;;;;;;;;;;;;;24.39;69.21;101299.59;3964689;29;19929;-70
2023/08/18 01:40:25;;;;;;;;;;;;;;;24.38;69.52;101303.44;3959019;29;20009;-69
2023/08/18 01:42:27;;;;;;;;;;;;;;;24.36;69.24;101302.84;3967193;29;20027;-69
2023/08/18 01:44:29;;;;;;;;;;;;;;;24.36;69.51;101311.13;3959457;29;20469;-70
2023/08/18 01:46:31;;;;;;;;;;;;;;;24.36;69.50;101307.56;3957775;29;19968;-70
2023/08/18 01:48:34;;;;;;;;;;;;;;;24.35;69.48;101316.91;3968039;29;20055;-70
2023/08/18 01:50:36;;;;;;;;;;;;;;;24.34;69.67;101304.19;3958524;29;20523;-69
2023/08/18 01:52:38;;;;;;;;;;;;;;;24.33;69.55;101303.38;3969958;29;20012;-70
2023/08/18 01:54:39;;;;;;;;;;;;;;;24.33;69.62;101303.38;3966657;29;20036;-69
2023/08/18 01:56:43;;;;;;;;;;;;;;;24.32;69.69;101301.69;3967557;29;20028;-70
2023/08/18 01:58:45;;;;;;;;;;;;;;;24.30;69.70;101306.63;3968346;29;19953;-71
2023/08/18 02:00:47;;;;;;;;;;;;;;;24.29;70.07;101311.34;3957453;29;20028;-70
2023/08/18 02:02:49;;;;;;;;;;;;;;;24.30;70.17;101317.69;3968534;29;20021;-70
2023/08/18 02:04:51;;;;;;;;;;;;;;;24.29;70.23;101316.84;3967421;29;20016;-70
2023/08/18 02:06:53;;;;;;;;;;;;;;;24.28;70.18;101323.44;3966496;29;20025;-69
2023/08/18 02:08:57;;;;;;;;;;;;;;;24.27;69.89;101324.53;3969211;29;20448;-70
2023/08/18 02:11:02;;;;;;;;;;;;;;;24.25;70.04;101326.72;3969379;29;20033;-70
2023/08/18 02:13:06;;;;;;;;;;;;;;;24.24;70.49;101316.75;3973228;29;20881;-69
2023/08/18 02:15:08;;;;;;;;;;;;;;;24.22;70.19;101321.72;3965292;29;20019;-70
2023/08/18 02:17:12;;;;;;;;;;;;;;;24.21;70.62;101316.44;3968510;29;21353;-69
2023/08/18 02:19:14;;;;;;;;;;;;;;;24.18;70.39;101312.25;3969551;29;20028;-69
2023/08/18 02:21:16;;;;;;;;;;;;;;;24.17;70.76;101316.13;3968648;29;20041;-69
2023/08/18 02:23:19;;;;;;;;;;;;;;;24.16;70.45;101311.69;3973121;29;20406;-70
2023/08/18 02:25:23;;;;;;;;;;;;;;;24.14;70.92;101311.13;3973104;29;19933;-69
2023/08/18 02:27:25;;;;;;;;;;;;;;;24.13;70.87;101311.38;3967235;29;20020;-70
2023/08/18 02:29:30;;;;;;;;;;;;;;;24.12;70.65;101302.25;3972342;29;20032;-69
2023/08/18 02:31:32;;;;;;;;;;;;;;;24.10;71.07;101302.50;3968080;29;20024;-69
2023/08/18 02:33:34;;;;;;;;;;;;;;;24.09;71.06;101302.75;3967023;29;20028;-69
2023/08/18 02:35:38;;;;;;;;;;;;;;;24.09;70.81;101302.75;3967346;29;20028;-69
2023/08/18 02:37:42;;;;;;;;;;;;;;;24.07;71.07;101303.00;3968424;29;19968;-70
2023/08/18 02:39:44;;;;;;;;;;;;;;;24.07;71.01;101313.22;3975362;29;20468;-70
2023/08/18 02:41:45;;;;;;;;;;;;;;;24.05;71.13;101302.44;3971706;29;20023;-70
2023/08/18 02:43:47;;;;;;;;;;;;;;;24.06;71.11;101308.78;3970231;29;20056;-70
2023/08/18 02:45:56;;;;;;;;;;;;;;;24.03;71.41;101307.38;3975739;29;20024;-68
2023/08/18 02:47:58;;;;;;;;;;;;;;;24.02;71.33;101297.41;3968069;29;20017;-69
2023/08/18 02:50:00;;;;;;;;;;;;;;;24.02;71.17;101291.91;3970269;29;20357;-70
2023/08/18 02:52:02;;;;;;;;;;;;;;;24.01;71.66;101293.00;3971151;29;20051;-70
2023/08/18 02:54:04;;;;;;;;;;;;;;;24.00;71.55;101284.97;3970039;29;20489;-69
2023/08/18 02:56:06;;;;;;;;;;;;;;;24.00;71.63;101290.50;3970059;29;20032;-69
2023/08/18 02:58:07;;;;;;;;;;;;;;;23.98;71.69;101301.78;3982708;29;20031;-70
2023/08/18 03:00:10;;;;;;;;;;;;;;;23.97;71.37;101297.34;3969907;29;19995;-69
2023/08/18 03:02:13;;;;;;;;;;;;;;;23.96;71.76;101295.66;3975189;29;20032;-69
2023/08/18 03:04:15;;;;;;;;;;;;;;;23.95;71.70;101296.78;3969339;29;20020;-69
2023/08/18 03:06:17;;;;;;;;;;;;;;;23.96;71.60;101295.66;3969935;29;19933;-69
2023/08/18 03:08:19;;;;;;;;;;;;;;;23.94;71.65;101300.63;3954743;29;20013;-70
2023/08/18 03:10:21;;;;;;;;;;;;;;;23.93;71.58;101302.53;3968260;29;20020;-70
2023/08/18 03:12:23;;;;;;;;;;;;;;;23.92;72.06;101300.03;3968595;29;20013;-70
2023/08/18 03:14:26;;;;;;;;;;;;;;;23.91;71.95;101304.69;3969966;29;20040;-70
2023/08/18 03:16:28;;;;;;;;;;;;;;;23.91;72.06;101303.88;3960541;29;20029;-69
2023/08/18 03:18:31;;;;;;;;;;;;;;;23.91;72.08;101301.13;3959616;29;20038;-69
2023/08/18 03:20:33;;;;;;;;;;;;;;;23.89;72.01;101304.13;3960331;29;20040;-70
2023/08/18 03:22:35;;;;;;;;;;;;;;;23.89;72.23;101300.53;3960012;29;20024;-69
2023/08/18 03:24:37;;;;;;;;;;;;;;;23.88;72.29;101299.69;3968382;29;20028;-69
2023/08/18 03:26:39;;;;;;;;;;;;;;;23.89;72.11;101309.66;3970202;29;19936;-69
2023/08/18 03:28:41;;;;;;;;;;;;;;;23.88;71.97;101302.44;3970653;29;20027;-70
2023/08/18 03:30:44;;;;;;;;;;;;;;;23.88;72.09;101313.47;3970143;29;20480;-70
2023/08/18 03:32:47;;;;;;;;;;;;;;;23.88;72.41;101309.91;3970208;29;20023;-69
2023/08/18 03:34:52;;;;;;;;;;;;;;;23.87;72.30;101316.50;3975324;29;20329;-69
2023/08/18 03:36:56;;;;;;;;;;;;;;;23.85;72.14;101319.50;3969346;29;20024;-69
2023/08/18 03:38:58;;;;;;;;;;;;;;;23.85;72.09;101321.44;3970933;29;20109;-69
2023/08/18 03:41:04;;;;;;;;;;;;;;;23.85;72.32;101330.53;3959391;29;20020;-69
2023/08/18 03:43:06;;;;;;;;;;;;;;;23.84;72.25;101326.13;3954080;29;20469;-69
2023/08/18 03:45:08;;;;;;;;;;;;;;;23.84;72.46;101330.78;3960099;29;20032;-69
2023/08/18 03:47:10;;;;;;;;;;;;;;;23.82;72.25;101331.00;3968707;29;19972;-69
2023/08/18 03:49:12;;;;;;;;;;;;;;;23.83;72.28;101329.09;3966537;29;20453;-69
2023/08/18 03:51:16;;;;;;;;;;;;;;;23.81;72.31;101332.09;3967730;29;20024;-69
2023/08/18 03:53:21;;;;;;;;;;;;;;;23.80;72.64;101329.59;3968566;29;20025;-69
2023/08/18 03:55:23;;;;;;;;;;;;;;;23.79;72.67;101330.69;3970385;29;20101;-69
2023/08/18 03:57:25;;;;;;;;;;;;;;;23.79;72.61;101336.19;3973531;29;20392;-69
2023/08/18 03:59:27;;;;;;;;;;;;;;;23.77;72.55;101341.13;3969114;29;20469;-69
2023/08/18 04:01:29;;;;;;;;;;;;;;;23.77;72.48;101347.47;3967960;29;20442;-70
2023/08/18 04:03:31;;;;;;;;;;;;;;;23.77;72.60;101341.13;3968478;29;20373;-70
2023/08/18 04:05:33;;;;;;;;;;;;;;;23.74;72.55;101334.19;3969378;29;20032;-69
2023/08/18 04:07:37;;;;;;;;;;;;;;;23.73;72.75;101347.16;3969246;29;19929;-69
2023/08/18 04:09:40;;;;;;;;;;;;;;;23.72;73.00;101342.72;3968768;29;20019;-69
2023/08/18 04:11:42;;;;;;;;;;;;;;;23.71;72.75;101349.31;3959771;29;20449;-69
2023/08/18 04:13:45;;;;;;;;;;;;;;;23.70;72.88;101346.81;3969454;29;20036;-69
2023/08/18 04:15:47;;;;;;;;;;;;;;;23.68;72.99;101360.88;3969526;29;20033;-69
2023/08/18 04:17:49;;;;;;;;;;;;;;;23.67;72.97;101358.34;3965568;29;20020;-69
2023/08/18 04:19:52;;;;;;;;;;;;;;;23.67;72.95;101361.94;3968046;29;20024;-69
2023/08/18 04:21:54;;;;;;;;;;;;;;;23.66;73.14;101365.78;3959638;29;20021;-69
2023/08/18 04:23:57;;;;;;;;;;;;;;;23.65;73.14;101353.09;3969672;29;20033;-69
2023/08/18 04:26:00;;;;;;;;;;;;;;;23.65;72.93;101361.38;3974119;29;20038;-69
2023/08/18 04:28:02;;;;;;;;;;;;;;;23.64;72.69;101365.19;3974183;29;19936;-70
2023/08/18 04:30:07;;;;;;;;;;;;;;;23.62;73.03;101359.09;3967391;29;20375;-69
2023/08/18 04:32:09;;;;;;;;;;;;;;;23.62;72.95;101361.88;3968469;29;20015;-69
2023/08/18 04:34:11;;;;;;;;;;;;;;;23.61;73.20;101367.63;3974245;29;20428;-69
2023/08/18 04:36:13;;;;;;;;;;;;;;;23.62;73.06;101363.75;3970532;29;19929;-68
2023/08/18 04:38:17;;;;;;;;;;;;;;;23.59;73.34;101367.88;3966578;29;20020;-69
2023/08/18 04:40:21;;;;;;;;;;;;;;;23.60;73.40;101365.94;3965882;29;20373;-68
2023/08/18 04:42:27;;;;;;;;;;;;;;;23.60;73.06;101363.19;3970908;29;20464;-68
2023/08/18 04:44:29;;;;;;;;;;;;;;;23.59;73.49;101351.34;3969087;29;20027;-69
2023/08/18 04:46:31;;;;;;;;;;;;;;;23.57;73.11;101365.38;3971899;29;20028;-68
2023/08/18 04:48:37;;;;;;;;;;;;;;;23.56;73.22;101355.41;3968664;29;20045;-68
2023/08/18 04:50:41;;;;;;;;;;;;;;;23.57;73.29;101359.00;3973779;29;20012;-69
2023/08/18 04:52:43;;;;;;;;;;;;;;;23.56;73.30;101363.69;3974283;29;20036;-69
2023/08/18 04:54:44;;;;;;;;;;;;;;;23.57;73.29;101362.59;3966294;29;20009;-69
2023/08/18 04:56:49;;;;;;;;;;;;;;;23.56;73.62;101363.69;3969418;29;20032;-69
2023/08/18 04:58:51;;;;;;;;;;;;;;;23.56;73.44;101363.69;3968718;29;20027;-69
2023/08/18 05:00:54;;;;;;;;;;;;;;;23.56;73.63;101371.13;3968666;29;20020;-69
2023/08/18 05:02:56;;;;;;;;;;;;;;;23.56;73.42;101366.44;3973066;29;20025;-69
2023/08/18 05:04:58;;;;;;;;;;;;;;;23.56;73.61;101369.19;3966415;29;20028;-69
2023/08/18 05:07:00;;;;;;;;;;;;;;;23.56;73.81;101365.63;3958188;29;20661;-69
2023/08/18 05:09:01;;;;;;;;;;;;;;;23.56;73.81;101360.91;3968422;29;20375;-69
2023/08/18 05:11:04;;;;;;;;;;;;;;;23.57;73.50;101359.84;3973654;29;20023;-69
2023/08/18 05:13:07;;;;;;;;;;;;;;;23.57;73.57;101359.84;3968656;29;20627;-69
2023/08/18 05:15:09;;;;;;;;;;;;;;;23.58;73.50;101367.00;3957975;29;20028;-71
2023/08/18 05:17:12;;;;;;;;;;;;;;;23.58;73.84;101361.50;3968999;29;20367;-71
2023/08/18 05:19:14;;;;;;;;;;;;;;;23.60;73.77;101366.78;3967995;29;20023;-70
2023/08/18 05:21:16;;;;;;;;;;;;;;;23.61;73.86;101367.63;3969383;29;20041;-70
2023/08/18 05:23:19;;;;;;;;;;;;;;;23.62;73.68;101361.00;3965757;29;20024;-70
2023/08/18 05:25:21;;;;;;;;;;;;;;;23.61;73.46;101360.19;3969370;29;20028;-71
2023/08/18 05:27:23;;;;;;;;;;;;;;;23.63;73.86;101362.69;3968460;29;20024;-69
2023/08/18 05:29:27;;;;;;;;;;;;;;;23.63;73.43;101362.69;3967623;29;20024;-70
2023/08/18 05:31:30;;;;;;;;;;;;;;;23.64;73.56;101361.63;3968874;29;20052;-70
2023/08/18 05:33:32;;;;;;;;;;;;;;;23.66;73.45;101360.25;3968387;29;20515;-70
2023/08/18 05:35:34;;;;;;;;;;;;;;;23.65;73.68;101361.38;3968440;29;20027;-70
2023/08/18 05:37:36;;;;;;;;;;;;;;;23.67;73.49;101353.66;3967552;29;20031;-70
2023/08/18 05:39:38;;;;;;;;;;;;;;;23.68;73.33;101355.34;3968609;29;20028;-70
2023/08/18 05:41:40;;;;;;;;;;;;;;;23.68;73.26;101355.34;3968501;29;19945;-70
2023/08/18 05:43:42;;;;;;;;;;;;;;;23.70;73.38;101360.63;3967586;29;20024;-70
2023/08/18 05:45:46;;;;;;;;;;;;;;;23.72;73.30;101358.44;3967326;29;20464;-70
2023/08/18 05:47:48;;;;;;;;;;;;;;;23.72;73.42;101353.75;3969662;29;20017;-70
2023/08/18 05:49:50;;;;;;;;;;;;;;;23.74;73.46;101357.06;3970248;29;19940;-70
2023/08/18 05:51:52;;;;;;;;;;;;;;;23.76;73.12;101367.84;3970367;29;19987;-70
2023/08/18 05:53:54;;;;;;;;;;;;;;;23.76;73.59;101356.81;3968032;29;20033;-70
2023/08/18 06:11:16;;;;;;;;;;;;;;;23.83;72.87;101360.25;3968900;29;19925;-70
2023/08/18 06:13:18;;;;;;;;;;;;;;;23.85;73.07;101349.84;3970397;29;20409;-70
2023/08/18 06:15:19;;;;;;;;;;;;;;;23.86;72.88;101348.75;3971914;29;20028;-70
2023/08/18 06:17:21;;;;;;;;;;;;;;;23.87;73.07;101355.09;3971310;29;20015;-70
2023/08/18 06:19:23;;;;;;;;;;;;;;;23.88;73.25;101356.78;3970960;29;20028;-70
2023/08/18 06:21:25;;;;;;;;;;;;;;;23.88;72.92;101354.84;3969747;29;20051;-70
2023/08/18 06:23:26;;;;;;;;;;;;;;;23.90;72.76;101362.88;3968484;29;20032;-70
2023/08/18 06:25:28;;;;;;;;;;;;;;;23.91;72.60;101365.38;3968756;29;20389;-70
2023/08/18 06:27:33;;;;;;;;;;;;;;;23.93;73.23;101360.47;3969509;29;20033;-70
2023/08/18 06:29:35;;;;;;;;;;;;;;;23.95;72.82;101360.22;3970571;29;20460;-70
2023/08/18 06:31:37;;;;;;;;;;;;;;;23.96;72.66;101364.63;3970260;29;19929;-70
2023/08/18 06:33:39;;;;;;;;;;;;;;;23.98;72.53;101358.88;3970968;29;20028;-70
2023/08/18 06:35:41;;;;;;;;;;;;;;;23.98;72.68;101354.22;3971993;29;20053;-70
2023/08/18 06:37:43;;;;;;;;;;;;;;;24.01;72.45;101355.59;3969444;29;20423;-70
2023/08/18 06:39:45;;;;;;;;;;;;;;;24.01;72.50;101353.69;3968761;29;20372;-70
2023/08/18 06:41:47;;;;;;;;;;;;;;;24.03;72.95;101348.75;3970225;29;20874;-70
2023/08/18 06:43:50;;;;;;;;;;;;;;;24.05;72.54;101354.84;3959730;29;20033;-70
2023/08/18 06:45:52;;;;;;;;;;;;;;;24.08;72.66;101348.00;3969188;29;20399;-72
2023/08/18 06:47:55;;;;;;;;;;;;;;;24.09;72.34;101356.03;3965840;29;20027;-70
2023/08/18 06:49:56;;;;;;;;;;;;;;;24.10;72.41;101354.09;3969089;29;20035;-70
2023/08/18 06:51:59;;;;;;;;;;;;;;;24.13;72.30;101358.28;3957732;29;19933;-71
2023/08/18 06:54:02;;;;;;;;;;;;;;;24.14;72.28;101348.91;3970002;29;20019;-69
2023/08/18 06:56:04;;;;;;;;;;;;;;;24.17;72.31;101345.63;3959114;29;20032;-69
2023/08/18 06:58:06;;;;;;;;;;;;;;;24.18;72.29;101353.66;3969904;29;20027;-68
2023/08/18 07:00:10;;;;;;;;;;;;;;;24.17;72.53;101345.63;3958424;29;20016;-68
2023/08/18 07:02:13;;;;;;;;;;;;;;;24.19;71.74;101346.22;3970417;29;20488;-69
2023/08/18 07:04:15;;;;;;;;;;;;;;;24.20;72.19;101353.41;3972116;29;20012;-70
2023/08/18 07:06:17;;;;;;;;;;;;;;;24.22;71.82;101354.00;3958820;29;19934;-70
2023/08/18 07:08:22;;;;;;;;;;;;;;;24.24;71.99;101352.63;3969571;29;20040;-69
2023/08/18 07:10:24;;;;;;;;;;;;;;;24.25;71.64;101350.75;3969780;29;20057;-70
2023/08/18 07:12:26;;;;;;;;;;;;;;;24.27;72.07;101351.31;3969743;29;19933;-69
2023/08/18 07:14:28;;;;;;;;;;;;;;;24.29;71.64;101349.13;3970292;29;20140;-70
2023/08/18 07:16:32;;;;;;;;;;;;;;;24.30;71.49;101345.28;3969426;29;20017;-69
2023/08/18 07:18:34;;;;;;;;;;;;;;;24.33;71.63;101349.47;3970363;29;20036;-68
2023/08/18 07:20:36;;;;;;;;;;;;;;;24.35;71.63;101358.31;3967734;29;20016;-68
2023/08/18 07:22:38;;;;;;;;;;;;;;;24.37;71.48;101348.69;3967207;29;20124;-69
2023/08/18 07:24:40;;;;;;;;;;;;;;;24.39;71.24;101337.38;3967080;29;20024;-69
2023/08/18 07:26:42;;;;;;;;;;;;;;;24.39;71.39;101338.22;3967142;29;20048;-69
2023/08/18 07:28:44;;;;;;;;;;;;;;;24.41;71.31;101338.81;3969021;29;20044;-69
2023/08/18 07:30:46;;;;;;;;;;;;;;;24.43;71.29;101344.06;3968717;29;20472;-69
2023/08/18 07:32:50;;;;;;;;;;;;;;;24.46;71.12;101341.63;3967857;29;19930;-70
2023/08/18 07:34:52;;;;;;;;;;;;;;;24.47;71.04;101346.06;3966242;29;20028;-70
2023/08/18 07:36:53;;;;;;;;;;;;;;;24.50;70.73;101341.13;3967658;29;20032;-71
2023/08/18 07:38:55;;;;;;;;;;;;;;;24.51;70.58;101337.28;3968717;29;20028;-70
2023/08/18 07:40:57;;;;;;;;;;;;;;;24.53;70.84;101340.59;3968954;29;20012;-71
2023/08/18 07:42:59;;;;;;;;;;;;;;;24.56;70.53;101337.34;3968648;29;20337;-71
2023/08/18 07:45:02;;;;;;;;;;;;;;;24.56;70.62;101335.44;3971311;29;20041;-71
2023/08/18 07:47:04;;;;;;;;;;;;;;;24.58;70.66;101326.91;3970293;29;19941;-70
2023/08/18 07:49:07;;;;;;;;;;;;;;;24.61;70.14;101340.22;3970284;29;20452;-71
2023/08/18 07:51:09;;;;;;;;;;;;;;;24.63;70.24;101330.56;3969276;29;20032;-70
2023/08/18 07:53:11;;;;;;;;;;;;;;;24.65;70.13;101333.06;3969484;29;19941;-70
2023/08/18 07:55:13;;;;;;;;;;;;;;;24.67;70.28;101322.63;3969714;29;20020;-70
2023/08/18 07:57:16;;;;;;;;;;;;;;;24.69;69.96;101328.72;3969302;29;20041;-69
2023/08/18 07:59:19;;;;;;;;;;;;;;;24.72;69.93;101321.81;3974556;29;20381;-70
2023/08/18 08:01:21;;;;;;;;;;;;;;;24.74;70.00;101325.16;3969145;29;20035;-70
2023/08/18 08:03:23;;;;;;;;;;;;;;;24.76;69.75;101328.50;3970155;29;20049;-71
2023/08/18 08:05:27;;;;;;;;;;;;;;;24.78;69.82;101321.63;3969135;29;20518;-70
2023/08/18 08:07:32;;;;;;;;;;;;;;;24.80;69.68;101329.66;3969366;29;20032;-71
2023/08/18 08:09:34;;;;;;;;;;;;;;;24.82;69.85;101327.47;3968874;29;20372;-70
2023/08/18 08:11:36;;;;;;;;;;;;;;;24.83;69.62;101326.38;3966200;29;20567;-70
2023/08/18 08:13:38;;;;;;;;;;;;;;;24.85;69.53;101320.59;3968403;29;20585;-70
2023/08/18 08:15:45;;;;;;;;;;;;;;;24.87;69.55;101326.69;3968904;29;20056;-70
2023/08/18 08:17:47;;;;;;;;;;;;;;;24.89;69.03;101330.03;3969205;29;20031;-70
2023/08/18 08:19:49;;;;;;;;;;;;;;;24.92;69.07;101335.03;3968548;29;20375;-71
2023/08/18 08:21:52;;;;;;;;;;;;;;;24.93;69.09;101334.78;3969068;29;20052;-71
2023/08/18 08:23:54;;;;;;;;;;;;;;;24.96;68.76;101337.03;3968837;29;20663;-71
2023/08/18 08:25:56;;;;;;;;;;;;;;;24.97;68.86;101338.69;3968981;29;20020;-71
2023/08/18 08:27:58;;;;;;;;;;;;;;;25.00;68.58;101334.59;3968461;29;20109;-70
2023/08/18 08:30:00;;;;;;;;;;;;;;;25.02;68.70;101331.56;3967925;29;20031;-71
2023/08/18 08:32:02;;;;;;;;;;;;;;;25.04;68.60;101337.66;3968379;29;20035;-72
2023/08/18 08:34:04;;;;;;;;;;;;;;;25.07;68.62;101334.38;3968124;29;20484;-71
2023/08/18 08:36:06;;;;;;;;;;;;;;;25.09;68.30;101333.00;3969598;29;20587;-71
2023/08/18 08:38:08;;;;;;;;;;;;;;;25.11;68.37;101332.75;3968842;29;20024;-71
2023/08/18 08:40:13;;;;;;;;;;;;;;;25.13;68.19;101333.34;3968352;29;20024;-70
2023/08/18 08:42:15;;;;;;;;;;;;;;;25.15;68.27;101331.16;3969517;29;20489;-70
2023/08/18 08:44:17;;;;;;;;;;;;;;;25.17;68.12;101337.22;3968460;29;20044;-70
2023/08/18 08:46:19;;;;;;;;;;;;;;;25.19;67.96;101335.88;3965874;29;20031;-70
2023/08/18 08:48:21;;;;;;;;;;;;;;;25.22;67.44;101333.69;3968245;29;20056;-70
2023/08/18 08:50:23;;;;;;;;;;;;;;;25.24;67.49;101339.81;3967943;29;20036;-71
2023/08/18 08:52:24;;;;;;;;;;;;;;;25.27;67.16;101336.53;3967759;29;20028;-72
2023/08/18 08:54:27;;;;;;;;;;;;;;;25.27;66.95;101334.59;3968082;29;19937;-71
2023/08/18 08:56:30;;;;;;;;;;;;;;;25.30;67.15;101336.03;3967971;29;20028;-73
2023/08/18 08:58:32;;;;;;;;;;;;;;;25.31;67.23;101337.69;3968543;29;20114;-71
2023/08/18 09:00:34;;;;;;;;;;;;;;;25.32;66.66;101331.91;3967709;29;20032;-70
2023/08/18 09:02:36;;;;;;;;;;;;;;;25.35;66.43;101334.13;3967603;29;20031;-70
2023/08/18 09:04:38;;;;;;;;;;;;;;;25.37;66.35;101336.63;3967784;29;20040;-70
2023/08/18 09:06:40;;;;;;;;;;;;;;;25.38;66.35;101338.31;3966575;29;20040;-71
2023/08/18 09:08:42;;;;;;;;;;;;;;;25.41;66.11;101337.78;3968108;29;20032;-71
2023/08/18 09:10:46;;;;;;;;;;;;;;;25.41;66.03;101332.25;3967221;29;20027;-70
2023/08/18 09:12:48;;;;;;;;;;;;;;;25.42;66.23;101331.16;3968481;29;20032;-72
2023/08/18 09:14:50;;;;;;;;;;;;;;;25.45;65.84;101338.09;3968273;29;19995;-71
2023/08/18 09:16:52;;;;;;;;;;;;;;;25.46;65.79;101332.31;3967724;29;20028;-72
2023/08/18 09:18:54;;;;;;;;;;;;;;;25.46;65.77;101332.31;3967922;29;20122;-70
2023/08/18 09:20:57;;;;;;;;;;;;;;;25.49;65.57;101328.19;3967765;29;19929;-70
2023/08/18 09:22:59;;;;;;;;;;;;;;;25.49;65.69;101326.25;3967433;29;20032;-71
2023/08/18 09:25:01;;;;;;;;;;;;;;;25.50;65.97;101325.16;3967943;29;20787;-70
2023/08/18 09:27:08;;;;;;;;;;;;;;;25.52;66.02;101327.66;3967814;29;20378;-71
2023/08/18 09:29:10;;;;;;;;;;;;;;;25.52;65.65;101320.19;3968091;29;20028;-71
2023/08/18 09:31:12;;;;;;;;;;;;;;;25.54;65.59;101323.53;3967491;29;20020;-71
2023/08/18 09:33:14;;;;;;;;;;;;;;;25.56;65.72;101320.50;3967557;29;20034;-71
2023/08/18 09:35:19;;;;;;;;;;;;;;;25.58;65.45;101323.84;3968531;29;20509;-71
2023/08/18 09:37:21;;;;;;;;;;;;;;;25.58;65.72;101321.09;3968101;29;20102;-71
2023/08/18 09:39:25;;;;;;;;;;;;;;;25.60;65.14;101318.06;3967296;29;20028;-70
2023/08/18 09:41:27;;;;;;;;;;;;;;;25.61;65.59;101317.78;3967908;29;20460;-70
2023/08/18 09:43:30;;;;;;;;;;;;;;;25.63;65.08;101329.41;3968473;29;20036;-71
2023/08/18 09:45:32;;;;;;;;;;;;;;;25.65;65.14;101307.03;3969945;29;20024;-70
2023/08/18 09:47:34;;;;;;;;;;;;;;;25.65;65.02;101321.69;3969630;29;20375;-71
2023/08/18 09:49:37;;;;;;;;;;;;;;;25.68;65.07;101317.56;3973613;29;20008;-71
2023/08/18 09:51:40;;;;;;;;;;;;;;;25.69;65.25;101311.75;3970918;29;20040;-71
2023/08/18 09:53:42;;;;;;;;;;;;;;;25.71;65.20;101311.50;3961009;29;20024;-71
2023/08/18 09:55:45;;;;;;;;;;;;;;;25.72;64.96;101311.22;3971182;29;20486;-70
2023/08/18 09:57:50;;;;;;;;;;;;;;;25.73;64.92;101310.13;3970601;29;20036;-70
2023/08/18 09:59:54;;;;;;;;;;;;;;;25.75;64.78;101309.03;3970963;29;20374;-70
2023/08/18 10:01:56;;;;;;;;;;;;;;;25.77;64.87;101306.81;3970642;29;20048;-70
2023/08/18 10:03:58;;;;;;;;;;;;;;;25.77;65.09;101310.44;3970884;29;20015;-70
2023/08/18 10:06:00;;;;;;;;;;;;;;;25.79;65.01;101304.63;3970803;29;20350;-72
2023/08/18 10:08:03;;;;;;;;;;;;;;;25.81;64.65;101313.50;3971605;29;20037;-69
2023/08/18 10:10:05;;;;;;;;;;;;;;;25.82;64.88;101304.94;3970077;29;20021;-72
2023/08/18 10:12:08;;;;;;;;;;;;;;;25.83;64.56;101309.38;3971032;29;20012;-71
2023/08/18 10:14:09;;;;;;;;;;;;;;;25.86;64.44;101308.00;3970774;29;20037;-71
2023/08/18 10:16:13;;;;;;;;;;;;;;;25.87;64.12;101316.03;3971146;29;20429;-71
2023/08/18 10:18:15;;;;;;;;;;;;;;;25.88;64.46;101306.63;3970415;29;20472;-71
2023/08/18 10:20:17;;;;;;;;;;;;;;;25.89;64.31;101308.31;3970354;29;20020;-71
2023/08/18 10:22:19;;;;;;;;;;;;;;;25.92;64.20;101306.09;3970135;29;20031;-71
2023/08/18 10:24:21;;;;;;;;;;;;;;;25.93;63.71;101302.25;3971573;29;20072;-69
2023/08/18 10:26:22;;;;;;;;;;;;;;;25.93;63.62;101294.78;3970365;29;20460;-70
2023/08/18 10:28:28;;;;;;;;;;;;;;;25.94;63.94;101301.97;3970734;29;20031;-70
2023/08/18 10:30:30;;;;;;;;;;;;;;;25.95;63.90;101287.03;3971541;29;20038;-71
2023/08/18 10:32:33;;;;;;;;;;;;;;;25.96;63.66;101285.94;3966624;29;20040;-70
2023/08/18 10:34:35;;;;;;;;;;;;;;;25.97;63.76;101279.34;3969948;29;20457;-70
2023/08/18 10:36:37;;;;;;;;;;;;;;;25.98;63.50;101278.22;3970329;29;20028;-69
2023/08/18 10:38:39;;;;;;;;;;;;;;;25.99;63.33;101279.91;3970662;29;20456;-71
2023/08/18 10:40:41;;;;;;;;;;;;;;;26.01;63.20;101282.41;3970697;29;20016;-71
2023/08/18 10:42:44;;;;;;;;;;;;;;;26.03;63.56;101282.94;3969412;29;20460;-70